This is the latest recevied weather packets stored in our database for station/object KC3VCX. If no packets are shown the sender has not sent any weather packets the latest 10 day(s).
| Time | Temp. | Humidity | Pressure | Rain* | Wind** | Luminosity | Snow |
|---|---|---|---|---|---|---|---|
| 1777924344 | 21.67° C | 49% | 1009.7 hPa | 0 mm | - | 113 W/m² | - |
| 1777924041 | 21.11° C | 50% | 1009.8 hPa | 0 mm | - | 761 W/m² | - |
| 1777923737 | 21.11° C | 49% | 1009.8 hPa | 0 mm | - | 216 W/m² | - |
| 1777923434 | 21.11° C | 48% | 1009.9 hPa | 0 mm | - | 160 W/m² | - |
| 1777923132 | 22.78° C | 45% | 1009.7 hPa | 0 mm | - | 206 W/m² | - |
| 1777922830 | 22.22° C | 48% | 1009.7 hPa | 0 mm | - | 854 W/m² | - |
| 1777922528 | 21.67° C | 47% | 1010 hPa | 0 mm | - | 346 W/m² | - |
| 1777922226 | 22.22° C | 46% | 1009.9 hPa | 0 mm | - | 285 W/m² | - |
| 1777921922 | 23.33° C | 45% | 1010 hPa | 0 mm | - | 828 W/m² | - |
| 1777921618 | 22.78° C | 44% | 1010.1 hPa | 0 mm | - | 543 W/m² | - |
| 1777921314 | 22.22° C | 45% | 1010.2 hPa | 0 mm | - | 802 W/m² | - |
| 1777921011 | 22.22° C | 46% | 1010.1 hPa | 0 mm | - | 324 W/m² | - |
| 1777920708 | 22.22° C | 46% | 1010.4 hPa | 0 mm | - | 736 W/m² | - |
| 1777920404 | 21.67° C | 48% | 1010.4 hPa | 0 mm | - | 864 W/m² | - |
| 1777920099 | 22.22° C | 47% | 1010.5 hPa | 0 mm | - | 818 W/m² | - |
| 1777919796 | 21.67° C | 46% | 1010.3 hPa | 0 mm | - | 790 W/m² | - |
| 1777919494 | 21.67° C | 46% | 1010.5 hPa | 0 mm | - | 827 W/m² | - |
| 1777919191 | 21.11° C | 47% | 1010.6 hPa | 0 mm | - | 811 W/m² | - |
| 1777918888 | 21.11° C | 48% | 1010.6 hPa | 0 mm | - | 825 W/m² | - |
| 1777918586 | 21.67° C | 47% | 1010.8 hPa | 0 mm | - | 859 W/m² | - |
| 1777918283 | 21.67° C | 45% | 1010.6 hPa | 0 mm | - | 230 W/m² | - |
| 1777917982 | 21.67° C | 45% | 1010.8 hPa | 0 mm | - | 801 W/m² | - |
| 1777917681 | 21.11° C | 45% | 1011 hPa | 0 mm | - | 823 W/m² | - |
| 1777917377 | 21.11° C | 47% | 1011 hPa | 0 mm | - | 845 W/m² | - |
| 1777917074 | 21.11° C | 47% | 1010.9 hPa | 0 mm | - | 815 W/m² | - |
* Rain latest hour (hover to see other rain measurements)
** Current wind speed in m/s (hover to see current wind gust speed)